Time;durP1;ratioP1;P1;durP2;ratioP2;P2;SDS_P1;SDS_P2;PMS_P1;PMS_P2;Temp;Humidity;BMP_temperature;BMP_pressure;BME280_temperature;BME280_humidity;BME280_pressure;Samples;Min_cycle;Max_cycle;Signal;HPM_P1;HPM_P2
2023/02/25 18:26:19;;;;;;;5.10;2.10;;;5.90;10.70;;;;;;4959630;23;20264;-84
2023/02/25 18:28:46;;;;;;;9.27;3.43;;;5.80;1.00;;;;;;4951417;29;20208;-86
2023/02/25 18:31:14;;;;;;;9.17;3.20;;;5.70;7.30;;;;;;4946427;29;20280;-83
2023/02/25 18:33:40;;;;;;;7.70;2.30;;;5.70;1.00;;;;;;4944640;29;20234;-84
2023/02/25 18:36:07;;;;;;;6.90;2.47;;;5.70;85.40;;;;;;4944108;28;20188;-86
2023/02/25 18:38:40;;;;;;;5.87;1.77;;;5.70;99.90;;;;;;4944633;29;20252;-87
2023/02/25 18:41:06;;;;;;;5.90;2.50;;;5.60;99.90;;;;;;4945721;29;20240;-86
2023/02/25 18:43:35;;;;;;;4.80;2.30;;;5.60;99.90;;;;;;4955940;29;20185;-87
2023/02/25 18:46:03;;;;;;;5.63;2.40;;;5.70;1.00;;;;;;4942186;29;20212;-85
2023/02/25 18:48:34;;;;;;;12.20;2.83;;;5.50;99.90;;;;;;4941623;29;20633;-87
2023/02/25 18:51:00;;;;;;;6.77;2.33;;;5.50;99.90;;;;;;4940991;29;20181;-87
2023/02/25 18:53:26;;;;;;;11.13;3.10;;;5.50;1.00;;;;;;4942815;29;20229;-86
2023/02/25 18:55:54;;;;;;;9.27;3.20;;;5.50;91.90;;;;;;4945497;29;20181;-86
2023/02/25 18:58:41;;;;;;;7.87;2.33;;;5.40;99.90;;;;;;4944857;29;20217;-85
2023/02/25 19:01:22;;;;;;;7.93;2.43;;;5.40;1.00;;;;;;4944931;29;20260;-84
2023/02/25 19:03:52;;;;;;;9.00;3.53;;;5.30;1.00;;;;;;4947636;29;20181;-87
2023/02/25 19:06:42;;;;;;;5.67;2.40;;;5.40;1.00;;;;;;4950521;29;20213;-86
2023/02/25 19:09:11;;;;;;;6.93;3.00;;;5.30;1.00;;;;;;4955510;29;20165;-86
2023/02/25 19:11:42;;;;;;;10.43;2.83;;;5.30;99.90;;;;;;4951029;29;20200;-84
2023/02/25 19:14:14;;;;;;;8.30;3.07;;;5.20;1.00;;;;;;4956387;29;20157;-87
2023/02/25 19:16:51;;;;;;;6.50;2.87;;;5.20;59.70;;;;;;4956717;29;20347;-85
2023/02/25 19:19:39;;;;;;;8.00;2.47;;;5.20;99.90;;;;;;4953785;29;20205;-85
2023/02/25 19:22:04;;;;;;;7.27;2.53;;;5.20;99.90;;;;;;4949726;29;20215;-85
2023/02/25 19:24:47;;;;;;;10.87;3.07;;;5.10;99.90;;;;;;4946406;29;20240;-84
2023/02/25 19:27:20;;;;;;;11.23;3.17;;;5.10;99.90;;;;;;4939732;29;20213;-86
2023/02/25 19:29:56;;;;;;;9.20;3.67;;;5.10;99.90;;;;;;4923238;29;20213;-86
2023/02/25 19:32:25;;;;;;;9.17;3.00;;;5.10;99.90;;;;;;4922372;29;20182;-84
2023/02/25 19:34:55;;;;;;;14.97;3.90;;;5.10;99.90;;;;;;4925083;29;20193;-85
2023/02/25 19:37:30;;;;;;;7.87;2.80;;;5.00;99.90;;;;;;4933294;29;20256;-83
2023/02/25 19:43:28;;;;;;;9.23;3.23;;;5.00;1.00;;;;;;4920431;29;20181;-84
2023/02/25 19:45:57;;;;;;;9.83;2.77;;;5.00;99.90;;;;;;4919808;29;20272;-86
2023/02/25 19:48:23;;;;;;;12.40;3.80;;;4.90;1.00;;;;;;4920625;29;20181;-84
2023/02/25 19:50:54;;;;;;;10.20;3.37;;;4.90;1.00;;;;;;4902932;29;20245;-85
2023/02/25 19:53:44;;;;;;;7.47;3.30;;;4.80;1.00;;;;;;4922049;29;20181;-85
2023/02/25 19:56:11;;;;;;;9.53;3.80;;;4.80;1.00;;;;;;4926720;29;20177;-85
2023/02/25 19:58:37;;;;;;;6.63;2.53;;;4.90;1.00;;;;;;4926675;29;20721;-84
2023/02/25 20:01:04;;;;;;;11.63;4.17;;;4.80;1.00;;;;;;4918333;29;20174;-86
2023/02/25 20:03:30;;;;;;;8.33;3.27;;;4.80;1.00;;;;;;4917704;29;20169;-84
2023/02/25 20:06:31;;;;;;;;;;;;;;;;;;;;;
2023/02/25 20:09:06;;;;;;;11.40;3.43;;;4.70;1.00;;;;;;4916889;29;20170;-86
2023/02/25 20:11:32;;;;;;;11.40;3.40;;;4.70;1.00;;;;;;4908489;29;20181;-86
2023/02/25 20:14:04;;;;;;;8.80;3.70;;;4.60;1.00;;;;;;4901467;29;20175;-86
2023/02/25 20:16:38;;;;;;;7.80;3.30;;;4.60;1.00;;;;;;4899244;29;20174;-84
2023/02/25 20:19:09;;;;;;;11.30;4.47;;;4.60;1.00;;;;;;4912629;29;20644;-84
2023/02/25 20:21:45;;;;;;;10.07;4.03;;;4.60;99.90;;;;;;4903134;29;20178;-84
2023/02/25 20:24:11;;;;;;;14.17;4.67;;;4.70;99.90;;;;;;4903097;29;20198;-85
2023/02/25 20:26:38;;;;;;;10.27;4.17;;;4.50;1.00;;;;;;4904132;29;20202;-85
2023/02/25 20:29:09;;;;;;;14.07;4.63;;;4.60;1.00;;;;;;4907043;29;20234;-84
2023/02/25 20:31:41;;;;;;;8.60;3.87;;;4.50;1.00;;;;;;4913236;29;20269;-85
2023/02/25 20:34:12;;;;;;;9.17;2.90;;;4.60;1.00;;;;;;4909439;29;20182;-84
2023/02/25 20:36:58;;;;;;;10.73;3.87;;;4.40;1.00;;;;;;4901936;29;20176;-85
2023/02/25 20:40:15;;;;;;;10.03;4.33;;;4.40;1.00;;;;;;4903218;29;20256;-84
2023/02/25 20:43:04;;;;;;;11.07;3.87;;;4.40;1.00;;;;;;4902861;29;20175;-86
2023/02/25 20:45:31;;;;;;;8.50;3.47;;;4.40;1.00;;;;;;4901895;29;20230;-87
2023/02/25 20:47:56;;;;;;;10.20;3.30;;;4.40;1.00;;;;;;4902521;29;20226;-86
2023/02/25 20:50:26;;;;;;;9.87;4.30;;;4.40;1.00;;;;;;4903833;29;20178;-87
2023/02/25 20:52:54;;;;;;;12.77;3.70;;;4.30;1.00;;;;;;4902951;29;20171;-87
2023/02/25 20:55:20;;;;;;;8.77;4.30;;;4.30;1.00;;;;;;4901631;29;20175;-85
2023/02/25 20:57:45;;;;;;;13.23;4.33;;;4.40;1.00;;;;;;4904095;29;20178;-85
2023/02/25 21:00:15;;;;;;;7.90;3.77;;;4.30;1.00;;;;;;4909461;29;20634;-87
2023/02/25 21:02:41;;;;;;;8.23;3.30;;;4.30;1.00;;;;;;4911124;29;20238;-84
2023/02/25 21:05:09;;;;;;;8.90;3.83;;;4.40;1.00;;;;;;4909395;29;20742;-85
2023/02/25 21:07:35;;;;;;;14.33;4.20;;;4.40;1.00;;;;;;4905015;29;20165;-83
2023/02/25 21:10:01;;;;;;;7.60;2.70;;;4.20;1.00;;;;;;4905326;29;20170;-85
2023/02/25 21:12:33;;;;;;;8.77;3.23;;;4.20;1.00;;;;;;4907967;29;20191;-86
2023/02/25 21:21:42;;;;;;;9.00;3.30;;;4.10;1.00;;;;;;4923522;29;20193;-87
2023/02/25 21:24:11;;;;;;;8.40;3.53;;;4.10;1.00;;;;;;4920609;29;20651;-87
2023/02/25 21:26:46;;;;;;;10.83;3.17;;;4.10;1.00;;;;;;4922511;29;20285;-86
2023/02/25 21:29:13;;;;;;;10.37;4.13;;;4.10;1.00;;;;;;4922158;29;20201;-87
2023/02/25 21:31:50;;;;;;;12.60;4.40;;;4.10;1.00;;;;;;4930981;29;20170;-86
2023/02/25 21:34:22;;;;;;;10.63;4.27;;;4.30;1.00;;;;;;4928364;29;20638;-85
2023/02/25 21:36:49;;;;;;;12.00;4.10;;;4.00;1.00;;;;;;4922413;29;20181;-85
2023/02/25 21:39:17;;;;;;;11.93;4.30;;;4.00;1.00;;;;;;4924288;29;20174;-86
2023/02/25 21:41:45;;;;;;;9.37;4.27;;;4.20;1.00;;;;;;4922407;29;20622;-87
2023/02/25 21:44:12;;;;;;;15.27;4.87;;;4.20;1.00;;;;;;4921049;29;20189;-85
2023/02/25 21:46:45;;;;;;;12.37;4.37;;;4.10;1.00;;;;;;4920863;29;20174;-86
2023/02/25 21:49:12;;;;;;;10.47;4.43;;;4.10;1.00;;;;;;4921307;29;20241;-86
2023/02/25 21:51:39;;;;;;;10.80;5.37;;;4.10;1.00;;;;;;4904760;29;20218;-85
2023/02/25 21:54:06;;;;;;;7.20;3.30;;;4.20;1.00;;;;;;4905541;29;20205;-88
2023/02/25 21:56:33;;;;;;;9.13;3.60;;;4.20;1.00;;;;;;4927676;29;20224;-88
2023/02/25 21:59:01;;;;;;;9.37;3.67;;;4.20;1.00;;;;;;4940282;29;20177;-84
2023/02/25 22:01:44;;;;;;;10.93;4.17;;;4.10;1.00;;;;;;4905614;29;20661;-87
2023/02/25 22:04:14;;;;;;;8.50;3.27;;;4.00;1.00;;;;;;4901193;29;20182;-86
2023/02/25 22:06:41;;;;;;;8.20;3.73;;;4.00;1.00;;;;;;4906431;29;20186;-86
2023/02/25 22:09:19;;;;;;;11.10;4.17;;;4.00;1.00;;;;;;4906979;29;20209;-86
2023/02/25 22:11:48;;;;;;;8.13;3.97;;;3.90;35.60;;;;;;4918868;29;20323;-86
2023/02/25 22:14:14;;;;;;;6.67;3.57;;;4.00;62.50;;;;;;4914721;29;20540;-86
2023/02/25 22:16:41;;;;;;;9.47;3.93;;;3.90;1.00;;;;;;4919693;29;20180;-84
2023/02/25 22:19:12;;;;;;;13.87;4.33;;;4.00;28.70;;;;;;4911455;29;20163;-83
2023/02/25 22:21:46;;;;;;;9.80;4.17;;;3.90;3.30;;;;;;4922275;29;20162;-85
2023/02/25 22:24:15;;;;;;;10.33;3.80;;;4.00;19.20;;;;;;4915354;29;20175;-83
2023/02/25 22:26:41;;;;;;;7.83;3.83;;;3.90;1.00;;;;;;4903283;29;20217;-85
2023/02/25 22:29:26;;;;;;;15.33;5.97;;;4.00;1.00;;;;;;4901138;29;20202;-86
2023/02/25 22:31:53;;;;;;;9.00;3.47;;;4.00;1.00;;;;;;4903630;29;20175;-86
2023/02/25 22:34:24;;;;;;;10.27;3.80;;;3.90;9.70;;;;;;4900733;29;20552;-87
2023/02/25 22:36:50;;;;;;;10.73;4.27;;;3.90;1.00;;;;;;4899148;29;20178;-85
2023/02/25 22:39:15;;;;;;;11.33;4.13;;;3.90;1.00;;;;;;4898432;29;20178;-85
2023/02/25 22:41:59;;;;;;;10.97;3.70;;;4.10;10.20;;;;;;4898635;29;20234;-86
2023/02/25 22:44:28;;;;;;;9.97;3.43;;;3.90;79.50;;;;;;4904162;29;20182;-84
2023/02/25 22:46:54;;;;;;;9.00;3.90;;;3.80;1.00;;;;;;4917147;29;20656;-85
2023/02/25 22:49:34;;;;;;;9.97;3.47;;;3.90;1.00;;;;;;4920211;29;20268;-87
2023/02/25 22:52:02;;;;;;;7.60;3.60;;;3.90;99.90;;;;;;4919366;29;20188;-86
2023/02/25 22:54:51;;;;;;;11.73;3.47;;;3.90;1.00;;;;;;4918702;29;20174;-87
2023/02/25 22:57:17;;;;;;;9.90;3.77;;;3.90;23.40;;;;;;4920629;29;20182;-86
2023/02/25 22:59:42;;;;;;;8.20;3.47;;;3.90;54.10;;;;;;4918585;29;20192;-85
2023/02/25 23:02:08;;;;;;;8.20;3.83;;;3.80;13.50;;;;;;4919351;29;20598;-87
2023/02/25 23:04:37;;;;;;;8.47;3.40;;;3.90;90.00;;;;;;4920951;29;20216;-87
2023/02/25 23:07:05;;;;;;;8.37;3.37;;;3.90;43.60;;;;;;4920921;29;20193;-85
2023/02/25 23:09:34;;;;;;;5.67;2.97;;;3.90;84.40;;;;;;4918982;29;20642;-85
2023/02/25 23:12:00;;;;;;;7.33;3.53;;;3.90;6.30;;;;;;4919295;29;20618;-86
2023/02/25 23:14:33;;;;;;;7.50;3.30;;;3.80;19.80;;;;;;4919046;29;20186;-84
2023/02/25 23:16:59;;;;;;;12.03;4.37;;;3.70;99.90;;;;;;4918220;29;20519;-86
2023/02/25 23:19:28;;;;;;;10.33;3.33;;;3.70;99.90;;;;;;4917872;29;20259;-87
2023/02/25 23:21:55;;;;;;;12.80;3.90;;;3.80;99.90;;;;;;4918065;29;20657;-87
2023/02/25 23:24:24;;;;;;;8.17;3.40;;;3.70;99.90;;;;;;4918914;29;20255;-86
2023/02/25 23:26:53;;;;;;;9.63;3.50;;;3.70;99.90;;;;;;4920883;29;20221;-87
2023/02/25 23:29:26;;;;;;;9.23;3.33;;;3.80;99.90;;;;;;4924324;29;20222;-85
2023/02/25 23:31:55;;;;;;;15.03;3.43;;;3.80;99.90;;;;;;4905792;29;20181;-86
2023/02/25 23:34:22;;;;;;;10.80;3.17;;;3.90;99.90;;;;;;4919443;29;20284;-85
2023/02/25 23:36:55;;;;;;;13.47;3.20;;;3.90;99.90;;;;;;4921238;29;20181;-86
2023/02/25 23:39:47;;;;;;;13.50;3.47;;;3.80;99.90;;;;;;4929973;29;20201;-91
2023/02/25 23:42:58;;;;;;;9.57;3.67;;;3.80;99.90;;;;;;4937376;29;20170;-90
2023/02/25 23:45:41;;;;;;;12.67;3.63;;;3.80;99.90;;;;;;4936214;29;20246;-92
2023/02/25 23:48:17;;;;;;;10.63;2.83;;;3.80;99.90;;;;;;4934857;29;20205;-87
2023/02/25 23:50:51;;;;;;;6.57;3.10;;;3.80;99.90;;;;;;4934614;29;20173;-86
2023/02/25 23:53:28;;;;;;;7.10;2.90;;;4.00;99.90;;;;;;4939122;29;20204;-88
2023/02/25 23:56:17;;;;;;;12.17;3.37;;;3.90;99.90;;;;;;4926147;29;20169;-85
2023/02/25 23:58:54;;;;;;;9.57;3.67;;;3.90;99.90;;;;;;4943549;29;20209;-85
